createdAt,value
2023-02-25T00:01:14.084Z,100248.03
2023-02-25T00:03:42.372Z,100252.72
2023-02-25T00:06:13.406Z,100249.00
2023-02-25T00:08:44.064Z,100254.56
2023-02-25T00:11:13.189Z,100257.28
2023-02-25T00:13:42.463Z,100258.28
2023-02-25T00:16:12.927Z,100264.56
2023-02-25T00:18:44.234Z,100261.09
2023-02-25T00:21:15.181Z,100257.50
2023-02-25T00:23:44.230Z,100248.50
2023-02-25T00:26:12.618Z,100249.47
2023-02-25T00:28:41.628Z,100254.03
2023-02-25T00:31:13.275Z,100248.59
2023-02-25T00:33:42.109Z,100244.41
2023-02-25T00:36:12.895Z,100248.72
2023-02-25T00:38:41.299Z,100248.88
2023-02-25T00:41:11.897Z,100240.72
2023-02-25T00:43:42.106Z,100244.41
2023-02-25T00:46:13.460Z,100244.41
2023-02-25T00:48:42.104Z,100245.50
2023-02-25T00:51:12.363Z,100251.78
2023-02-25T00:53:41.200Z,100241.91
2023-02-25T00:56:14.909Z,100250.94
2023-02-25T00:58:43.345Z,100242.03
2023-02-25T01:01:20.138Z,100249.09
2023-02-25T01:03:49.169Z,100251.16
2023-02-25T01:06:17.321Z,100247.59
2023-02-25T01:08:45.843Z,100242.19
2023-02-25T01:11:16.092Z,100245.72
2023-02-25T01:13:44.497Z,100247.59
2023-02-25T01:16:14.570Z,100249.44
2023-02-25T01:18:44.510Z,100250.31
2023-02-25T01:21:17.580Z,100246.72
2023-02-25T01:23:46.172Z,100257.59
2023-02-25T01:26:14.242Z,100250.53
2023-02-25T01:28:42.295Z,100249.78
2023-02-25T01:31:18.509Z,100252.38
2023-02-25T01:33:48.432Z,100256.19
2023-02-25T01:36:16.151Z,100255.56
2023-02-25T01:38:44.034Z,100260.13
2023-02-25T01:41:11.822Z,100262.94
2023-02-25T01:43:40.958Z,100256.75
2023-02-25T01:46:08.860Z,100248.72
2023-02-25T01:48:40.538Z,100262.19
2023-02-25T01:51:13.159Z,100255.03
2023-02-25T01:53:45.386Z,100260.44
2023-02-25T01:56:15.870Z,100264.13
2023-02-25T01:58:44.474Z,100266.84
2023-02-25T02:01:15.372Z,100258.72
2023-02-25T02:03:44.389Z,100264.13
2023-02-25T02:06:16.680Z,100265.88
2023-02-25T02:08:46.338Z,100265.16
2023-02-25T02:11:14.106Z,100259.59
2023-02-25T02:13:48.193Z,100257.63
2023-02-25T02:16:32.972Z,100257.53
2023-02-25T02:19:15.378Z,100256.66
2023-02-25T02:22:02.826Z,100251.44
2023-02-25T02:24:56.804Z,100252.31
2023-02-25T02:27:27.976Z,100252.41
2023-02-25T02:30:19.146Z,100250.56
2023-02-25T02:32:54.357Z,100264.13
2023-02-25T02:35:28.599Z,100265.16
2023-02-25T02:38:04.786Z,100265.16
2023-02-25T02:40:44.629Z,100258.84
2023-02-25T02:43:22.548Z,100258.84
2023-02-25T02:45:56.897Z,100255.38
2023-02-25T02:48:32.283Z,100255.28
2023-02-25T02:51:03.274Z,100257.13
2023-02-25T02:53:38.149Z,100249.84
2023-02-25T02:56:10.117Z,100254.41
2023-02-25T02:58:42.357Z,100249.09
2023-02-25T03:01:17.562Z,100252.66
2023-02-25T03:03:51.880Z,100249.97
2023-02-25T03:06:28.396Z,100260.81
2023-02-25T03:09:00.038Z,100249.16
2023-02-25T03:11:27.979Z,100256.44
2023-02-25T03:13:56.809Z,100263.59
2023-02-25T03:16:30.877Z,100255.47
2023-02-25T03:19:04.728Z,100250.13
2023-02-25T03:21:39.057Z,100263.69
2023-02-25T03:24:14.783Z,100262.94
2023-02-25T03:26:42.765Z,100265.91
2023-02-25T03:29:17.174Z,100264.81
2023-02-25T03:31:54.165Z,100262.94
2023-02-25T03:34:29.304Z,100270.25
2023-02-25T03:37:04.523Z,100271.22
2023-02-25T03:39:37.222Z,100266.78
2023-02-25T03:42:11.670Z,100277.63
2023-02-25T03:44:45.502Z,100270.34
2023-02-25T03:47:15.309Z,100279.47
2023-02-25T03:49:51.831Z,100278.50
2023-02-25T03:52:24.170Z,100271.34
2023-02-25T03:54:58.348Z,100273.16
2023-02-25T03:57:35.937Z,100285.75
2023-02-25T04:00:15.840Z,100285.75
2023-02-25T04:02:45.019Z,100277.63
2023-02-25T04:05:15.419Z,100283.81
2023-02-25T04:07:43.193Z,100284.91
2023-02-25T04:10:14.593Z,100285.66
2023-02-25T04:12:42.857Z,100289.34
2023-02-25T04:15:11.616Z,100302.91
2023-02-25T04:17:39.495Z,100292.06
2023-02-25T04:20:08.072Z,100293.78
2023-02-25T04:22:37.446Z,100300.09
2023-02-25T04:25:06.042Z,100309.19
2023-02-25T04:27:33.916Z,100309.19
2023-02-25T04:30:01.777Z,100308.31
2023-02-25T04:32:29.765Z,100311.91
2023-02-25T04:35:03.071Z,100314.63
2023-02-25T04:37:31.519Z,100307.47
2023-02-25T04:40:00.645Z,100306.34
2023-02-25T04:42:28.446Z,100301.94
2023-02-25T04:44:56.240Z,100301.94
2023-02-25T04:47:24.092Z,100301.94
2023-02-25T04:49:51.864Z,100300.09
2023-02-25T04:52:19.855Z,100295.50
2023-02-25T04:54:47.596Z,100296.50
2023-02-25T04:57:16.854Z,100300.09
2023-02-25T04:59:44.591Z,100300.09
2023-02-25T05:02:12.455Z,100302.78
2023-02-25T05:04:41.824Z,100304.63
2023-02-25T05:07:09.958Z,100302.91
2023-02-25T05:09:37.668Z,100300.28
2023-02-25T05:12:05.785Z,100301.28
2023-02-25T05:14:34.945Z,100304.75
2023-02-25T05:17:02.693Z,100304.84
2023-02-25T05:19:30.419Z,100298.56
2023-02-25T05:21:58.203Z,100307.66
2023-02-25T05:24:26.182Z,100290.44
2023-02-25T05:26:54.200Z,100299.44
2023-02-25T05:29:22.298Z,100300.28
2023-02-25T05:31:52.023Z,100300.28
2023-02-25T05:34:19.984Z,100296.81
2023-02-25T05:36:47.788Z,100307.66
2023-02-25T05:39:15.699Z,100300.50
2023-02-25T05:41:43.536Z,100312.13
2023-02-25T05:44:11.446Z,100305.81
2023-02-25T05:46:39.250Z,100311.25
2023-02-25T05:49:08.530Z,100314.84
2023-02-25T05:51:36.393Z,100301.38
2023-02-25T05:54:04.558Z,100305.81
2023-02-25T05:56:32.557Z,100296.81
2023-02-25T05:59:00.702Z,100310.28
2023-02-25T06:01:29.604Z,100307.66
2023-02-25T06:03:58.900Z,100317.66
2023-02-25T06:06:30.958Z,100322.09
2023-02-25T06:08:59.070Z,100318.72
2023-02-25T06:11:28.913Z,100319.50
2023-02-25T06:13:58.744Z,100318.53
2023-02-25T06:16:31.876Z,100315.81
2023-02-25T06:19:00.907Z,100311.47
2023-02-25T06:21:30.940Z,100312.22
2023-02-25T06:23:58.918Z,100322.31
2023-02-25T06:26:26.818Z,100323.31
2023-02-25T06:28:55.039Z,100317.03
2023-02-25T06:31:24.746Z,100322.44
2023-02-25T06:33:53.369Z,100336.13
2023-02-25T06:36:22.067Z,100343.38
2023-02-25T06:38:51.506Z,100340.56
2023-02-25T06:41:22.597Z,100335.16
2023-02-25T06:43:52.240Z,100341.53
2023-02-25T06:46:22.305Z,100346.97
2023-02-25T06:48:50.242Z,100347.06
2023-02-25T06:51:18.134Z,100354.34
2023-02-25T06:53:47.596Z,100358.78
2023-02-25T06:56:20.162Z,100361.41
2023-02-25T06:58:48.820Z,100363.44
2023-02-25T07:01:17.648Z,100366.94
2023-02-25T07:03:45.998Z,100360.53
2023-02-25T07:06:15.850Z,100358.78
2023-02-25T07:08:43.907Z,100362.38
2023-02-25T07:11:15.113Z,100362.25
2023-02-25T07:13:44.973Z,100364.09
2023-02-25T07:16:13.508Z,100367.69
2023-02-25T07:18:43.754Z,100374.97
2023-02-25T07:21:12.366Z,100376.81
2023-02-25T07:23:40.763Z,100385.69
2023-02-25T07:26:11.837Z,100386.53
2023-02-25T07:28:39.816Z,100370.41
2023-02-25T07:31:13.385Z,100386.31
2023-02-25T07:33:42.245Z,100381.97
2023-02-25T07:36:11.021Z,100377.31
2023-02-25T07:38:40.038Z,100370.06
2023-02-25T07:41:09.534Z,100379.81
2023-02-25T07:43:37.654Z,100378.97
2023-02-25T07:46:06.085Z,100376.13
2023-02-25T07:48:35.314Z,100386.88
2023-02-25T07:51:06.534Z,100382.19
2023-02-25T07:53:37.990Z,100392.31
2023-02-25T07:56:07.597Z,100382.09
2023-02-25T07:58:38.799Z,100394.72
2023-02-25T08:01:09.165Z,100403.72
2023-02-25T08:03:39.099Z,100403.59
2023-02-25T08:06:08.969Z,100403.59
2023-02-25T08:08:37.457Z,100403.59
2023-02-25T08:11:09.884Z,100401.53
2023-02-25T08:13:39.090Z,100411.66
2023-02-25T08:16:08.109Z,100408.78
2023-02-25T08:18:36.346Z,100405.09
2023-02-25T08:21:05.893Z,100412.28
2023-02-25T08:23:34.098Z,100400.53
2023-02-25T08:26:02.519Z,100405.00
2023-02-25T08:28:34.264Z,100414.13
2023-02-25T08:31:05.045Z,100421.28
2023-02-25T08:33:32.965Z,100421.28
2023-02-25T08:36:10.082Z,100423.00
2023-02-25T08:38:38.405Z,100424.09
2023-02-25T08:41:07.453Z,100426.81
2023-02-25T08:43:37.385Z,100433.97
2023-02-25T08:46:06.691Z,100432.22
2023-02-25T08:48:34.822Z,100437.66
2023-02-25T08:51:08.370Z,100439.41
2023-02-25T08:53:39.120Z,100441.34
2023-02-25T08:56:07.930Z,100447.00
2023-02-25T08:58:36.179Z,100443.44
2023-02-25T09:01:09.088Z,100442.56
2023-02-25T09:03:36.805Z,100444.28
2023-02-25T09:06:04.857Z,100438.53
2023-02-25T09:08:32.690Z,100437.31
2023-02-25T09:11:01.802Z,100430.84
2023-02-25T09:13:29.576Z,100436.25
2023-02-25T09:15:58.474Z,100440.47
2023-02-25T09:18:26.998Z,100445.81
2023-02-25T09:20:54.763Z,100444.72
2023-02-25T09:23:22.494Z,100457.06
2023-02-25T09:25:50.401Z,100455.88
2023-02-25T09:28:19.567Z,100460.88
2023-02-25T09:30:47.666Z,100451.63
2023-02-25T09:33:16.148Z,100454.00
2023-02-25T09:35:43.889Z,100461.06
2023-02-25T09:38:12.650Z,100457.16
2023-02-25T09:40:41.916Z,100469.53
2023-02-25T09:43:26.107Z,100464.59
2023-02-25T09:45:55.569Z,100462.75
2023-02-25T09:48:30.288Z,100466.91
2023-02-25T09:51:05.150Z,100471.09
2023-02-25T09:53:38.011Z,100484.69
2023-02-25T09:56:07.753Z,100489.03
2023-02-25T09:58:42.538Z,100490.53
2023-02-25T10:01:17.949Z,100494.88
2023-02-25T10:03:53.402Z,100498.25
2023-02-25T10:06:28.857Z,100491.69
2023-02-25T10:09:05.864Z,100496.81
2023-02-25T10:11:42.932Z,100500.28
2023-02-25T10:14:25.281Z,100514.47
2023-02-25T10:16:58.888Z,100508.06
2023-02-25T10:19:43.480Z,100518.59
2023-02-25T10:22:27.556Z,100521.19
2023-02-25T10:25:00.831Z,100526.63
2023-02-25T10:27:33.179Z,100542.94
2023-02-25T10:30:08.016Z,100560.09
2023-02-25T10:32:38.082Z,100573.06
2023-02-25T10:35:17.352Z,100579.78
2023-02-25T10:37:45.501Z,100587.50
2023-02-25T10:40:17.545Z,100591.56
2023-02-25T10:42:49.044Z,100607.63
2023-02-25T10:45:23.225Z,100616.44
2023-02-25T10:47:57.075Z,100606.47
2023-02-25T10:50:42.766Z,100605.38
2023-02-25T10:53:16.685Z,100601.56
2023-02-25T10:55:52.407Z,100598.50
2023-02-25T10:58:27.878Z,100604.47
2023-02-25T11:01:04.265Z,100598.47
2023-02-25T11:03:34.473Z,100602.34
2023-02-25T11:06:11.910Z,100594.41
2023-02-25T11:08:41.792Z,100603.75
2023-02-25T11:11:17.704Z,100597.34
2023-02-25T11:13:56.215Z,100597.44
2023-02-25T11:16:25.716Z,100590.09
2023-02-25T11:18:56.453Z,100584.53
2023-02-25T11:21:33.477Z,100585.97
2023-02-25T11:24:03.863Z,100582.19
2023-02-25T11:26:34.537Z,100589.94
2023-02-25T11:29:06.568Z,100584.94
2023-02-25T11:31:40.571Z,100579.06
2023-02-25T11:34:16.524Z,100586.47
2023-02-25T11:36:44.628Z,100586.03
2023-02-25T11:39:17.894Z,100580.63
2023-02-25T11:41:46.613Z,100561.94
2023-02-25T11:44:28.217Z,100582.75
2023-02-25T11:47:06.066Z,100574.81
2023-02-25T11:50:02.490Z,100576.84
2023-02-25T11:52:39.916Z,100575.22
2023-02-25T11:55:20.415Z,100585.25
2023-02-25T11:58:05.643Z,100561.97
2023-02-25T12:00:40.048Z,100561.28
2023-02-25T12:03:47.347Z,100562.72
2023-02-25T12:06:25.830Z,100557.31
2023-02-25T12:09:21.763Z,100556.72
2023-02-25T12:12:21.363Z,100559.63
2023-02-25T12:15:33.924Z,100567.34
2023-02-25T12:18:40.438Z,100564.66
2023-02-25T12:21:40.440Z,100563.09
2023-02-25T12:24:35.421Z,100566.84
2023-02-25T12:27:32.007Z,100563.16
2023-02-25T12:30:22.212Z,100561.56
2023-02-25T12:33:00.992Z,100566.16
2023-02-25T12:35:41.449Z,100560.13
2023-02-25T12:38:35.144Z,100588.59
2023-02-25T12:41:19.641Z,100588.09
2023-02-25T12:43:52.232Z,100593.66
2023-02-25T12:46:44.709Z,100588.59
2023-02-25T12:49:32.185Z,100585.94
2023-02-25T12:52:24.728Z,100586.31
2023-02-25T12:55:30.921Z,100585.53
2023-02-25T12:58:18.097Z,100587.09
2023-02-25T13:01:18.785Z,100588.56
2023-02-25T13:04:04.311Z,100584.69
2023-02-25T13:06:54.826Z,100582.34
2023-02-25T13:09:36.430Z,100583.13
2023-02-25T13:12:18.491Z,100596.72
2023-02-25T13:15:00.512Z,100588.47
2023-02-25T13:17:44.388Z,100593.91
2023-02-25T13:20:35.429Z,100593.03
2023-02-25T13:23:21.793Z,100591.69
2023-02-25T13:26:05.010Z,100597.03
2023-02-25T13:28:49.123Z,100601.78
2023-02-25T13:31:27.604Z,100606.16
2023-02-25T13:34:09.111Z,100607.53
2023-02-25T13:37:05.413Z,100609.53
2023-02-25T13:39:46.410Z,100610.41
2023-02-25T13:42:32.175Z,100614.09
2023-02-25T13:45:29.475Z,100603.44
2023-02-25T13:48:12.491Z,100603.34
2023-02-25T13:50:54.184Z,100609.53
2023-02-25T13:53:34.988Z,100617.06
2023-02-25T13:56:34.014Z,100619.28
2023-02-25T13:59:14.900Z,100622.00
2023-02-25T14:01:55.198Z,100626.59
2023-02-25T14:05:04.979Z,100643.16
2023-02-25T14:08:01.073Z,100643.38
2023-02-25T14:10:43.324Z,100647.94
2023-02-25T14:13:30.530Z,100650.78
2023-02-25T14:16:08.406Z,100642.50
2023-02-25T14:18:49.947Z,100641.53
2023-02-25T14:21:43.395Z,100651.66
2023-02-25T14:24:15.862Z,100662.81
2023-02-25T14:26:55.282Z,100670.16
2023-02-25T14:29:33.743Z,100651.47
2023-02-25T14:32:20.602Z,100655.50
2023-02-25T14:35:04.076Z,100654.63
2023-02-25T14:37:40.113Z,100661.03
2023-02-25T14:40:19.717Z,100668.66
2023-02-25T14:43:14.847Z,100678.50
2023-02-25T14:45:47.336Z,100674.31
2023-02-25T14:48:22.156Z,100675.28
2023-02-25T14:50:54.902Z,100668.97
2023-02-25T14:54:01.600Z,100682.06
2023-02-25T14:56:48.938Z,100683.50
2023-02-25T14:59:44.058Z,100692.28
2023-02-25T15:02:28.750Z,100686.94
2023-02-25T15:05:25.566Z,100697.19
2023-02-25T15:08:07.954Z,100701.75
2023-02-25T15:10:49.347Z,100696.44
2023-02-25T15:13:52.157Z,100701.75
2023-02-25T15:16:54.424Z,100699.50
2023-02-25T15:19:45.832Z,100701.97
2023-02-25T15:22:23.744Z,100717.53
2023-02-25T15:24:53.248Z,100711.44
2023-02-25T15:27:49.061Z,100715.72
2023-02-25T15:30:20.802Z,100723.00
2023-02-25T15:32:56.786Z,100726.56
2023-02-25T15:35:45.558Z,100729.59
2023-02-25T15:38:19.310Z,100736.06
2023-02-25T15:40:51.242Z,100738.78
2023-02-25T15:43:47.063Z,100744.50
2023-02-25T15:46:41.153Z,100742.00
2023-02-25T15:49:23.309Z,100742.88
2023-02-25T15:51:53.043Z,100755.72
2023-02-25T15:54:50.236Z,100753.97
2023-02-25T15:57:37.228Z,100756.03
2023-02-25T16:00:26.084Z,100761.56
2023-02-25T16:03:01.674Z,100767.34
2023-02-25T16:05:36.209Z,100766.47
2023-02-25T16:08:15.362Z,100773.13
2023-02-25T16:10:47.390Z,100780.25
2023-02-25T16:13:17.999Z,100791.47
2023-02-25T16:15:49.299Z,100790.59
2023-02-25T16:18:26.540Z,100793.31
2023-02-25T16:20:59.152Z,100796.22
2023-02-25T16:23:28.436Z,100798.31
2023-02-25T16:26:09.190Z,100811.66
2023-02-25T16:28:45.232Z,100817.41
2023-02-25T16:31:19.704Z,100808.72
2023-02-25T16:33:53.791Z,100814.25
2023-02-25T16:36:31.768Z,100821.53
2023-02-25T16:39:03.258Z,100828.13
2023-02-25T16:41:38.152Z,100824.88
2023-02-25T16:44:07.151Z,100829.75
2023-02-25T16:46:38.736Z,100833.34
2023-02-25T16:49:11.344Z,100835.28
2023-02-25T16:51:42.350Z,100850.03
2023-02-25T16:54:14.440Z,100849.16
2023-02-25T16:56:46.361Z,100859.38
2023-02-25T16:59:21.462Z,100863.94
2023-02-25T17:01:55.288Z,100869.56
2023-02-25T17:04:27.628Z,100864.34
2023-02-25T17:07:08.333Z,100877.13
2023-02-25T17:09:36.575Z,100872.88
2023-02-25T17:12:05.344Z,100874.72
2023-02-25T17:14:33.369Z,100882.09
2023-02-25T17:17:01.234Z,100881.44
2023-02-25T17:19:30.491Z,100886.84
2023-02-25T17:22:00.723Z,100894.22
2023-02-25T17:24:32.436Z,100898.91
2023-02-25T17:27:01.914Z,100904.41
2023-02-25T17:29:36.179Z,100906.16
2023-02-25T17:32:15.164Z,100903.53
2023-02-25T17:34:44.882Z,100905.47
2023-02-25T17:37:13.986Z,100908.28
2023-02-25T17:39:44.199Z,100909.25
2023-02-25T17:42:29.901Z,100913.94
2023-02-25T17:44:58.272Z,100911.50
2023-02-25T17:47:28.826Z,100918.69
2023-02-25T17:49:59.914Z,100927.88
2023-02-25T17:52:31.105Z,100928.84
2023-02-25T17:55:00.764Z,100922.66
2023-02-25T17:57:31.141Z,100932.66
2023-02-25T18:00:05.265Z,100941.81
2023-02-25T18:02:40.128Z,100949.16
2023-02-25T18:05:27.144Z,100943.84
2023-02-25T18:08:11.133Z,100940.56
2023-02-25T18:10:56.999Z,100957.78
2023-02-25T18:13:36.552Z,100959.72
2023-02-25T18:16:39.260Z,100966.41
2023-02-25T18:19:26.941Z,100966.50
2023-02-25T18:21:56.702Z,100974.72
2023-02-25T18:24:27.637Z,100976.59
2023-02-25T18:27:18.827Z,100985.69
2023-02-25T18:29:46.671Z,100985.97
2023-02-25T18:32:14.573Z,100992.34
2023-02-25T18:34:42.887Z,100988.00
2023-02-25T18:37:15.285Z,100994.41
2023-02-25T18:39:43.110Z,101005.63
2023-02-25T18:42:14.930Z,101007.25
2023-02-25T18:44:43.138Z,101009.19
2023-02-25T18:47:11.023Z,101004.84
2023-02-25T18:49:38.861Z,101009.41
2023-02-25T18:52:12.529Z,101011.22
2023-02-25T18:54:42.884Z,101015.78
2023-02-25T18:57:19.071Z,101005.72
2023-02-25T18:59:46.855Z,101009.56
2023-02-25T19:02:26.454Z,101012.19
2023-02-25T19:04:55.399Z,101021.38
2023-02-25T19:07:25.991Z,101024.09
2023-02-25T19:09:56.256Z,101026.03
2023-02-25T19:12:25.582Z,101027.00
2023-02-25T19:14:59.678Z,101030.59
2023-02-25T19:17:28.415Z,101032.50
2023-02-25T19:19:56.250Z,101036.28
2023-02-25T19:22:24.869Z,101044.41
2023-02-25T19:24:53.082Z,101046.25
2023-02-25T19:27:24.427Z,101043.53
2023-02-25T19:29:54.896Z,101045.44
2023-02-25T19:32:22.868Z,101044.69
2023-02-25T19:34:51.492Z,101052.03
2023-02-25T19:37:21.168Z,101047.50
2023-02-25T19:39:49.010Z,101047.66
2023-02-25T19:42:16.768Z,101049.50
2023-02-25T19:44:45.852Z,101057.63
2023-02-25T19:47:13.655Z,101054.16
2023-02-25T19:49:41.588Z,101056.97
2023-02-25T19:52:09.324Z,101064.22
2023-02-25T19:54:37.251Z,101068.75
2023-02-25T19:57:04.983Z,101073.31
2023-02-25T19:59:32.773Z,101079.69
2023-02-25T20:02:01.892Z,101085.97
2023-02-25T20:04:29.974Z,101085.19
2023-02-25T20:06:58.729Z,101080.72
2023-02-25T20:09:26.492Z,101090.81
2023-02-25T20:11:54.274Z,101094.56
2023-02-25T20:14:22.928Z,101091.84
2023-02-25T20:16:50.939Z,101092.91
2023-02-25T20:19:20.065Z,101094.72
2023-02-25T20:21:48.011Z,101093.97
2023-02-25T20:24:15.762Z,101094.94
2023-02-25T20:26:44.979Z,101096.75
2023-02-25T20:29:12.803Z,101103.22
2023-02-25T20:31:40.904Z,101100.59
2023-02-25T20:34:14.611Z,101109.59
2023-02-25T20:36:52.651Z,101107.78
2023-02-25T20:39:42.249Z,101115.09
2023-02-25T20:42:13.437Z,101118.00
2023-02-25T20:44:42.146Z,101128.94
2023-02-25T20:47:17.798Z,101127.09
2023-02-25T20:49:45.943Z,101122.78
2023-02-25T20:52:16.176Z,101128.22
2023-02-25T20:54:44.340Z,101132.88
2023-02-25T20:57:13.753Z,101129.28
2023-02-25T20:59:41.747Z,101136.63
2023-02-25T21:02:10.767Z,101143.88
2023-02-25T21:04:39.388Z,101138.53
2023-02-25T21:07:07.826Z,101139.50
2023-02-25T21:09:37.346Z,101140.44
2023-02-25T21:12:05.567Z,101145.97
2023-02-25T21:14:33.454Z,101154.19
2023-02-25T21:17:01.228Z,101147.88
2023-02-25T21:19:29.348Z,101149.81
2023-02-25T21:21:57.185Z,101157.94
2023-02-25T21:24:27.241Z,101157.13
2023-02-25T21:26:56.448Z,101156.38
2023-02-25T21:29:24.217Z,101152.94
2023-02-25T21:31:52.034Z,101156.59
2023-02-25T21:34:20.102Z,101162.09
2023-02-25T21:36:48.387Z,101165.88
2023-02-25T21:39:16.221Z,101161.50
2023-02-25T21:41:44.978Z,101160.63
2023-02-25T21:44:14.486Z,101166.03
2023-02-25T21:46:42.619Z,101165.22
2023-02-25T21:49:11.086Z,101164.44
2023-02-25T21:51:40.166Z,101164.53
2023-02-25T21:54:08.152Z,101166.38
2023-02-25T21:56:36.075Z,101170.03
2023-02-25T21:59:06.315Z,101169.16
2023-02-25T22:01:38.468Z,101167.41
2023-02-25T22:04:06.603Z,101166.78
2023-02-25T22:06:34.796Z,101169.50
2023-02-25T22:09:02.951Z,101174.03
2023-02-25T22:11:32.993Z,101176.81
2023-02-25T22:14:02.480Z,101171.56
2023-02-25T22:16:30.533Z,101177.94
2023-02-25T22:19:00.475Z,101178.03
2023-02-25T22:21:29.888Z,101178.13
2023-02-25T22:23:59.923Z,101196.28
2023-02-25T22:26:29.731Z,101182.72
2023-02-25T22:28:59.170Z,101190.13
2023-02-25T22:31:28.103Z,101201.06
2023-02-25T22:33:56.981Z,101202.91
2023-02-25T22:36:26.925Z,101202.09
2023-02-25T22:38:55.794Z,101204.94
2023-02-25T22:41:25.666Z,101209.50
2023-02-25T22:43:53.725Z,101207.72
2023-02-25T22:46:23.390Z,101219.53
2023-02-25T22:48:52.434Z,101213.31
2023-02-25T22:51:21.836Z,101209.75
2023-02-25T22:53:51.391Z,101211.56
2023-02-25T22:56:19.530Z,101208.94
2023-02-25T22:58:47.368Z,101215.31
2023-02-25T23:01:17.064Z,101217.06
2023-02-25T23:03:44.918Z,101220.78
2023-02-25T23:06:13.569Z,101218.09
2023-02-25T23:08:41.393Z,101223.59
2023-02-25T23:11:13.102Z,101218.19
2023-02-25T23:13:46.100Z,101210.16
2023-02-25T23:16:14.597Z,101219.44
2023-02-25T23:18:42.464Z,101214.13
2023-02-25T23:21:16.148Z,101212.19
2023-02-25T23:23:45.136Z,101212.19
2023-02-25T23:26:16.082Z,101222.06
2023-02-25T23:28:44.013Z,101218.66
2023-02-25T23:31:19.187Z,101224.97
2023-02-25T23:33:47.211Z,101221.53
2023-02-25T23:36:15.135Z,101224.22
2023-02-25T23:38:42.954Z,101238.69
2023-02-25T23:41:14.986Z,101245.06
2023-02-25T23:43:42.830Z,101246.09
2023-02-25T23:46:10.746Z,101239.75
2023-02-25T23:48:38.598Z,101241.63
2023-02-25T23:51:07.375Z,101251.50
2023-02-25T23:53:35.954Z,101248.00
2023-02-25T23:56:08.418Z,101248.00
2023-02-25T23:58:38.715Z,101244.47
